Greenwood, DE

6:55 AM EDT on May 29, 2015 (GMT -0400)
Sugar Hill Airport (DE17) | | Change Station
CLOSE
Current Station
Personal Weather Station
Location: Greenwood, DE
Elevation: 42 ft
Nearby Weather Stations

Elev 42 ft 38.78 °N, 75.58 °W | Updated 6 seconds ago

Overcast
Overcast
68.8 °F
Feels Like 68.8 °F
N
3.0
Wind Variable Wind from ENE
Gusts 5.0 mph

Today
High -- | Low -- °F
--% Chance of Precip.
Yesterday
High -- | Low -- °F
Precip. -- in
5:40 AM 8:19 PM
Waxing Gibbous, 83% visible
Pressure 30.25 in
Visibility 10.0 miles
Clouds Mostly Cloudy 2100 ft
Overcast 4300 ft
Dew Point 67 °F
Humidity 93%
Rainfall 0.00 in
Snow Depth Not available.
UV 0 out of 12
Pollen 6.70 out of 12
Air Quality Not available.
Flu Activity Sporadic
SPECI KGED 291043Z AUTO 00000KT 10SM BKN021 OVC043 20/17 A3025 RMK AO2 T02000172

More Conditions Fewer Conditions

Pressure 30.25 in
Visibility 10.0 miles
Clouds Mostly Cloudy 2100 ft
Overcast 4300 ft
Dew Point 67 °F
Humidity 93%
Rainfall 0.00 in
Snow Depth Not available.
UV 0 out of 12
Pollen 6.70 out of 12
Air Quality Not available.
Flu Activity Sporadic
SPECI KGED 291043Z AUTO 00000KT 10SM BKN021 OVC043 20/17 A3025 RMK AO2 T02000172

More Conditions Fewer Conditions

Nowcast | as of 6:34 am EDT on May 29, 2015

Isolated showers are expected to persist through mid morning across central and southern portions of Delmarva. These showers will be very slow moving and capable of producing locally heavy rain. Some locations that could be affected through 830 am EDT include but are not limited to eastern Caroline County in Maryland and Seaford and Laurel in Sussex County Delaware.

×

10-Day Weather Forecast

Almanac

Astronomy

May. 29, 2015 Rise Set
Actual Time
Civil Twilight
Nautical Twilight
Astronomical Twilight
Moon
Length of Visible Light
Length of Day
Tomorrow will be .
, % of the Moon is Illuminated

Today's Extremes

State Highs State Lows

Community

WunderPhotos

Upload Photos

1,825,233 photos uploaded!

WunderBlogs® & News

Nearby

Air Quality

  Air Quality AQ Index Pollutant
Not available.

Snow Depth

Station Depth Elevation

Earthquake Activity

City Distance Mag. Time & Date
Minimum magnitude displayed is 2.5.

Coastal Water Temperatures

Place Temperature

Stations

Nearby Weather Stations

Station Location Temp. Windchill Dew Point Humidity Wind Precip. Elev Updated Type